createdAt,value
2023-02-11T00:24:24.627Z,17.8
2023-02-11T00:53:18.370Z,17.76
2023-02-11T01:22:07.175Z,17.73
2023-02-11T01:51:00.598Z,17.7
2023-02-11T02:19:55.675Z,17.66
2023-02-11T02:48:43.331Z,17.63
2023-02-11T03:17:20.884Z,17.6
2023-02-11T03:46:11.701Z,17.57
2023-02-11T04:15:11.697Z,17.54
2023-02-11T04:44:17.755Z,17.51
2023-02-11T05:13:13.496Z,17.48
2023-02-11T05:42:06.576Z,17.45
2023-02-11T06:10:45.001Z,17.9
2023-02-11T06:39:29.709Z,18.27
2023-02-11T07:08:16.440Z,17.97
2023-02-11T07:36:43.670Z,18
2023-02-11T08:05:35.699Z,17.98
2023-02-11T08:34:27.524Z,18.16
2023-02-11T09:03:29.115Z,18.29
2023-02-11T09:32:12.264Z,18.16
2023-02-11T10:00:51.463Z,18.04
2023-02-11T10:29:21.752Z,17.95
2023-02-11T10:58:06.333Z,18
2023-02-11T11:26:51.080Z,18.08
2023-02-11T11:55:39.632Z,18.29
2023-02-11T12:24:19.017Z,18.43
2023-02-11T12:53:14.728Z,18.71
2023-02-11T13:21:59.485Z,19.06
2023-02-11T13:50:46.664Z,19.32
2023-02-11T14:19:39.855Z,19.48
2023-02-11T14:48:29.310Z,19.56
2023-02-11T15:17:16.954Z,19.33
2023-02-11T15:46:14.413Z,19.03
2023-02-11T16:14:54.256Z,18.87
2023-02-11T16:43:37.374Z,18.76
2023-02-11T17:12:33.381Z,18.66
2023-02-11T17:41:17.529Z,18.58
2023-02-11T18:09:58.284Z,18.51
2023-02-11T18:38:48.314Z,18.46
2023-02-11T19:07:36.060Z,18.41
2023-02-11T19:36:24.412Z,18.37
2023-02-11T20:05:07.899Z,18.32
2023-02-11T20:33:51.687Z,18.26
2023-02-11T21:02:42.427Z,18.22
2023-02-11T21:31:31.954Z,18.18
2023-02-11T22:00:12.248Z,18.15
2023-02-11T22:29:01.975Z,18.1
2023-02-11T22:57:53.204Z,18.07
2023-02-11T23:26:35.770Z,18.03
2023-02-11T23:55:25.946Z,17.97
